sensor_id;sensor_type;location;lat;lon;timestamp;pressure;altitude;pressure_sealevel;temperature;humidity
76128;BME280;64873;50.102;14.434;2023-04-02T00:00:33;98341.91;;;9.71;75.93
76128;BME280;64873;50.102;14.434;2023-04-02T00:03:00;98345.63;;;9.70;75.65
76128;BME280;64873;50.102;14.434;2023-04-02T00:05:29;98343.38;;;9.79;75.66
76128;BME280;64873;50.102;14.434;2023-04-02T00:08:03;98350.50;;;9.73;75.87
76128;BME280;64873;50.102;14.434;2023-04-02T00:10:36;98332.66;;;9.62;75.81
76128;BME280;64873;50.102;14.434;2023-04-02T00:13:21;98354.91;;;9.68;75.95
76128;BME280;64873;50.102;14.434;2023-04-02T00:15:49;98358.72;;;9.72;75.93
76128;BME280;64873;50.102;14.434;2023-04-02T00:18:18;98350.97;;;9.58;76.38
76128;BME280;64873;50.102;14.434;2023-04-02T00:21:15;98358.28;;;9.63;75.90
76128;BME280;64873;50.102;14.434;2023-04-02T00:23:38;98364.19;;;9.65;76.34
76128;BME280;64873;50.102;14.434;2023-04-02T00:28:46;98359.53;;;9.49;76.92
76128;BME280;64873;50.102;14.434;2023-04-02T00:31:11;98364.28;;;9.58;76.80
76128;BME280;64873;50.102;14.434;2023-04-02T00:33:37;98361.75;;;9.52;76.78
76128;BME280;64873;50.102;14.434;2023-04-02T00:36:05;98367.19;;;9.57;77.17
76128;BME280;64873;50.102;14.434;2023-04-02T00:38:32;98350.97;;;9.47;76.94
76128;BME280;64873;50.102;14.434;2023-04-02T00:41:04;98367.09;;;9.40;77.89
76128;BME280;64873;50.102;14.434;2023-04-02T00:43:34;98374.50;;;9.38;77.98
76128;BME280;64873;50.102;14.434;2023-04-02T00:46:03;98369.38;;;9.37;78.06
76128;BME280;64873;50.102;14.434;2023-04-02T00:51:23;98371.84;;;9.38;77.81
76128;BME280;64873;50.102;14.434;2023-04-02T00:53:53;98369.06;;;9.45;78.32
76128;BME280;64873;50.102;14.434;2023-04-02T00:56:31;98360.69;;;9.29;78.24
76128;BME280;64873;50.102;14.434;2023-04-02T00:58:57;98372.88;;;9.37;78.45
76128;BME280;64873;50.102;14.434;2023-04-02T01:01:26;98380.41;;;9.40;78.34
76128;BME280;64873;50.102;14.434;2023-04-02T01:03:59;98371.59;;;9.40;78.70
76128;BME280;64873;50.102;14.434;2023-04-02T01:06:36;98383.41;;;9.44;78.41
76128;BME280;64873;50.102;14.434;2023-04-02T01:14:59;98388.16;;;9.30;79.26
76128;BME280;64873;50.102;14.434;2023-04-02T01:20:37;98392.25;;;9.32;79.67
76128;BME280;64873;50.102;14.434;2023-04-02T01:23:34;98394.44;;;9.35;79.25
76128;BME280;64873;50.102;14.434;2023-04-02T01:26:09;98392.13;;;9.39;79.16
76128;BME280;64873;50.102;14.434;2023-04-02T01:29:01;98384.13;;;9.27;79.32
76128;BME280;64873;50.102;14.434;2023-04-02T01:31:28;98392.78;;;9.23;79.80
76128;BME280;64873;50.102;14.434;2023-04-02T01:33:55;98398.47;;;9.15;79.72
76128;BME280;64873;50.102;14.434;2023-04-02T01:44:08;98410.41;;;9.24;80.37
76128;BME280;64873;50.102;14.434;2023-04-02T01:46:39;98404.13;;;9.06;80.67
76128;BME280;64873;50.102;14.434;2023-04-02T01:49:18;98407.97;;;9.11;80.54
76128;BME280;64873;50.102;14.434;2023-04-02T01:51:46;98420.50;;;9.22;80.62
76128;BME280;64873;50.102;14.434;2023-04-02T01:54:16;98418.66;;;9.22;80.71
76128;BME280;64873;50.102;14.434;2023-04-02T01:56:43;98416.28;;;9.14;80.76
76128;BME280;64873;50.102;14.434;2023-04-02T01:59:10;98423.44;;;9.02;81.50
76128;BME280;64873;50.102;14.434;2023-04-02T02:01:44;98415.13;;;9.10;81.06
76128;BME280;64873;50.102;14.434;2023-04-02T02:04:13;98421.31;;;9.22;80.88
76128;BME280;64873;50.102;14.434;2023-04-02T02:06:40;98428.13;;;9.18;80.75
76128;BME280;64873;50.102;14.434;2023-04-02T02:09:07;98412.00;;;9.13;81.20
76128;BME280;64873;50.102;14.434;2023-04-02T02:11:37;98426.94;;;9.14;80.82
76128;BME280;64873;50.102;14.434;2023-04-02T02:14:16;98416.75;;;9.11;81.36
76128;BME280;64873;50.102;14.434;2023-04-02T02:16:43;98419.28;;;9.06;80.90
76128;BME280;64873;50.102;14.434;2023-04-02T02:19:26;98438.53;;;9.08;81.61
76128;BME280;64873;50.102;14.434;2023-04-02T02:21:56;98441.66;;;9.05;81.65
76128;BME280;64873;50.102;14.434;2023-04-02T02:24:25;98440.41;;;9.19;80.93
76128;BME280;64873;50.102;14.434;2023-04-02T02:29:48;98434.09;;;9.02;82.14
76128;BME280;64873;50.102;14.434;2023-04-02T02:32:19;98439.69;;;9.12;81.78
76128;BME280;64873;50.102;14.434;2023-04-02T02:34:48;98434.06;;;8.90;82.60
76128;BME280;64873;50.102;14.434;2023-04-02T02:37:27;98442.16;;;8.84;83.22
76128;BME280;64873;50.102;14.434;2023-04-02T02:39:58;98441.16;;;8.96;82.85
76128;BME280;64873;50.102;14.434;2023-04-02T02:42:37;98444.31;;;9.05;82.00
76128;BME280;64873;50.102;14.434;2023-04-02T02:45:09;98456.16;;;9.09;82.27
76128;BME280;64873;50.102;14.434;2023-04-02T02:47:37;98447.13;;;9.10;82.36
76128;BME280;64873;50.102;14.434;2023-04-02T02:50:10;98456.38;;;9.07;82.41
76128;BME280;64873;50.102;14.434;2023-04-02T02:52:38;98458.69;;;9.04;82.62
76128;BME280;64873;50.102;14.434;2023-04-02T02:55:15;98448.34;;;8.96;82.97
76128;BME280;64873;50.102;14.434;2023-04-02T02:57:52;98456.09;;;8.86;83.50
76128;BME280;64873;50.102;14.434;2023-04-02T03:00:20;98465.91;;;8.85;83.98
76128;BME280;64873;50.102;14.434;2023-04-02T03:02:49;98453.28;;;8.80;83.75
76128;BME280;64873;50.102;14.434;2023-04-02T03:05:21;98475.31;;;8.88;84.24
76128;BME280;64873;50.102;14.434;2023-04-02T03:07:50;98469.69;;;8.77;84.04
76128;BME280;64873;50.102;14.434;2023-04-02T03:12:58;98486.88;;;8.81;84.24
76128;BME280;64873;50.102;14.434;2023-04-02T03:15:33;98483.16;;;8.82;84.77
76128;BME280;64873;50.102;14.434;2023-04-02T03:18:10;98492.91;;;8.89;84.16
76128;BME280;64873;50.102;14.434;2023-04-02T03:20:45;98493.00;;;8.82;84.07
76128;BME280;64873;50.102;14.434;2023-04-02T03:28:26;98483.28;;;8.58;83.49
76128;BME280;64873;50.102;14.434;2023-04-02T03:30:59;98510.69;;;8.76;83.66
76128;BME280;64873;50.102;14.434;2023-04-02T03:33:32;98505.53;;;8.63;83.18
76128;BME280;64873;50.102;14.434;2023-04-02T03:38:32;98519.44;;;8.65;83.00
76128;BME280;64873;50.102;14.434;2023-04-02T03:43:38;98525.22;;;8.62;83.28
76128;BME280;64873;50.102;14.434;2023-04-02T03:46:43;98526.91;;;8.57;83.57
76128;BME280;64873;50.102;14.434;2023-04-02T03:49:16;98541.41;;;8.61;83.51
76128;BME280;64873;50.102;14.434;2023-04-02T03:54:15;98545.47;;;8.45;83.91
76128;BME280;64873;50.102;14.434;2023-04-02T03:56:42;98557.13;;;8.44;84.06
76128;BME280;64873;50.102;14.434;2023-04-02T03:59:19;98550.66;;;8.40;84.34
76128;BME280;64873;50.102;14.434;2023-04-02T04:04:51;98566.66;;;8.08;84.86
76128;BME280;64873;50.102;14.434;2023-04-02T04:07:30;98567.22;;;7.92;84.72
76128;BME280;64873;50.102;14.434;2023-04-02T04:09:57;98575.78;;;7.94;84.53
76128;BME280;64873;50.102;14.434;2023-04-02T04:12:30;98569.66;;;7.68;84.75
76128;BME280;64873;50.102;14.434;2023-04-02T04:15:26;98590.31;;;7.66;85.06
76128;BME280;64873;50.102;14.434;2023-04-02T04:18:07;98597.75;;;7.58;84.78
76128;BME280;64873;50.102;14.434;2023-04-02T04:20:57;98584.72;;;7.43;84.91
76128;BME280;64873;50.102;14.434;2023-04-02T04:23:36;98604.34;;;7.42;85.09
76128;BME280;64873;50.102;14.434;2023-04-02T04:26:25;98617.91;;;7.34;84.69
76128;BME280;64873;50.102;14.434;2023-04-02T04:29:26;98622.22;;;7.28;84.46
76128;BME280;64873;50.102;14.434;2023-04-02T04:32:08;98611.88;;;7.07;83.95
76128;BME280;64873;50.102;14.434;2023-04-02T04:34:42;98631.06;;;7.09;84.06
76128;BME280;64873;50.102;14.434;2023-04-02T04:37:23;98642.13;;;7.06;83.73
76128;BME280;64873;50.102;14.434;2023-04-02T04:40:00;98633.22;;;6.87;83.37
76128;BME280;64873;50.102;14.434;2023-04-02T04:42:31;98655.66;;;6.84;83.81
76128;BME280;64873;50.102;14.434;2023-04-02T04:47:37;98668.97;;;6.71;83.58
76128;BME280;64873;50.102;14.434;2023-04-02T04:50:32;98663.88;;;6.56;83.76
76128;BME280;64873;50.102;14.434;2023-04-02T04:53:27;98674.91;;;6.66;83.41
76128;BME280;64873;50.102;14.434;2023-04-02T04:55:55;98678.97;;;6.62;82.94
76128;BME280;64873;50.102;14.434;2023-04-02T04:58:32;98691.25;;;6.57;83.03
76128;BME280;64873;50.102;14.434;2023-04-02T05:01:16;98695.34;;;6.53;82.73
76128;BME280;64873;50.102;14.434;2023-04-02T05:04:03;98701.03;;;6.43;83.35
76128;BME280;64873;50.102;14.434;2023-04-02T05:06:38;98712.09;;;6.47;83.65
76128;BME280;64873;50.102;14.434;2023-04-02T05:09:30;98709.81;;;6.50;84.08
76128;BME280;64873;50.102;14.434;2023-04-02T05:14:50;98725.13;;;6.22;82.06
76128;BME280;64873;50.102;14.434;2023-04-02T05:17:27;98719.41;;;6.18;82.98
76128;BME280;64873;50.102;14.434;2023-04-02T05:25:09;98746.75;;;6.19;82.57
76128;BME280;64873;50.102;14.434;2023-04-02T05:32:59;98761.63;;;6.06;82.53
76128;BME280;64873;50.102;14.434;2023-04-02T05:35:31;98775.47;;;5.95;82.34
76128;BME280;64873;50.102;14.434;2023-04-02T05:37:59;98782.63;;;6.01;81.76
76128;BME280;64873;50.102;14.434;2023-04-02T05:40:34;98765.97;;;5.73;81.96
76128;BME280;64873;50.102;14.434;2023-04-02T05:43:02;98782.50;;;5.75;82.52
76128;BME280;64873;50.102;14.434;2023-04-02T05:45:34;98796.41;;;5.90;82.26
76128;BME280;64873;50.102;14.434;2023-04-02T05:48:06;98807.34;;;5.74;81.57
76128;BME280;64873;50.102;14.434;2023-04-02T05:50:41;98793.44;;;5.58;80.83
76128;BME280;64873;50.102;14.434;2023-04-02T05:59:00;98819.91;;;5.52;79.79
76128;BME280;64873;50.102;14.434;2023-04-02T06:01:52;98830.53;;;5.58;80.22
76128;BME280;64873;50.102;14.434;2023-04-02T06:07:00;98833.38;;;5.57;79.75
76128;BME280;64873;50.102;14.434;2023-04-02T06:09:33;98837.84;;;5.56;79.71
76128;BME280;64873;50.102;14.434;2023-04-02T06:12:16;98853.59;;;5.65;79.66
76128;BME280;64873;50.102;14.434;2023-04-02T06:14:44;98852.31;;;5.54;79.84
76128;BME280;64873;50.102;14.434;2023-04-02T06:17:16;98859.41;;;5.47;79.93
76128;BME280;64873;50.102;14.434;2023-04-02T06:19:43;98861.56;;;5.65;80.19
76128;BME280;64873;50.102;14.434;2023-04-02T06:22:19;98872.84;;;5.45;79.74
76128;BME280;64873;50.102;14.434;2023-04-02T06:24:54;98878.97;;;5.46;80.12
76128;BME280;64873;50.102;14.434;2023-04-02T06:27:23;98880.09;;;5.30;81.04
76128;BME280;64873;50.102;14.434;2023-04-02T06:29:50;98883.34;;;5.32;81.35
76128;BME280;64873;50.102;14.434;2023-04-02T06:32:19;98887.47;;;5.34;81.96
76128;BME280;64873;50.102;14.434;2023-04-02T06:34:47;98890.28;;;5.33;81.57
76128;BME280;64873;50.102;14.434;2023-04-02T06:37:18;98894.72;;;5.26;80.16
76128;BME280;64873;50.102;14.434;2023-04-02T06:39:45;98896.25;;;5.14;80.25
76128;BME280;64873;50.102;14.434;2023-04-02T06:42:14;98893.84;;;5.19;80.35
76128;BME280;64873;50.102;14.434;2023-04-02T06:44:41;98927.00;;;5.36;79.52
76128;BME280;64873;50.102;14.434;2023-04-02T06:47:19;98921.41;;;5.24;78.71
76128;BME280;64873;50.102;14.434;2023-04-02T06:50:14;98923.13;;;5.11;78.50
76128;BME280;64873;50.102;14.434;2023-04-02T06:52:47;98933.38;;;5.20;78.36
76128;BME280;64873;50.102;14.434;2023-04-02T06:55:32;98938.09;;;5.46;79.00
76128;BME280;64873;50.102;14.434;2023-04-02T06:58:01;98946.50;;;5.28;77.67
76128;BME280;64873;50.102;14.434;2023-04-02T07:00:36;98954.50;;;5.14;77.76
76128;BME280;64873;50.102;14.434;2023-04-02T07:03:06;98950.84;;;5.15;78.08
76128;BME280;64873;50.102;14.434;2023-04-02T07:05:32;98973.63;;;5.09;78.46
76128;BME280;64873;50.102;14.434;2023-04-02T07:07:57;98965.69;;;4.88;78.67
76128;BME280;64873;50.102;14.434;2023-04-02T07:10:23;98981.13;;;5.05;79.17
76128;BME280;64873;50.102;14.434;2023-04-02T07:12:48;98974.75;;;5.00;78.19
76128;BME280;64873;50.102;14.434;2023-04-02T07:15:15;98992.75;;;5.04;78.11
76128;BME280;64873;50.102;14.434;2023-04-02T07:17:42;98998.16;;;5.18;77.59
76128;BME280;64873;50.102;14.434;2023-04-02T07:20:29;98997.66;;;5.07;77.38
76128;BME280;64873;50.102;14.434;2023-04-02T07:22:55;99006.41;;;5.08;77.10
76128;BME280;64873;50.102;14.434;2023-04-02T07:25:22;99005.72;;;4.99;77.78
76128;BME280;64873;50.102;14.434;2023-04-02T07:27:49;99014.69;;;5.20;77.44
76128;BME280;64873;50.102;14.434;2023-04-02T07:30:15;99022.06;;;5.24;76.99
76128;BME280;64873;50.102;14.434;2023-04-02T07:32:41;99015.38;;;5.28;76.82
76128;BME280;64873;50.102;14.434;2023-04-02T07:35:07;99032.59;;;5.39;76.69
76128;BME280;64873;50.102;14.434;2023-04-02T07:37:34;99034.25;;;5.40;76.46
76128;BME280;64873;50.102;14.434;2023-04-02T07:40:00;99045.16;;;5.30;75.81
76128;BME280;64873;50.102;14.434;2023-04-02T07:42:26;99041.16;;;4.98;76.06
76128;BME280;64873;50.102;14.434;2023-04-02T07:44:51;99059.00;;;5.11;75.53
76128;BME280;64873;50.102;14.434;2023-04-02T07:47:17;99072.41;;;5.09;74.97
76128;BME280;64873;50.102;14.434;2023-04-02T07:49:42;99074.84;;;5.04;74.17
76128;BME280;64873;50.102;14.434;2023-04-02T07:52:07;99080.19;;;5.11;73.83
76128;BME280;64873;50.102;14.434;2023-04-02T07:54:33;99082.31;;;5.01;73.39
76128;BME280;64873;50.102;14.434;2023-04-02T07:57:00;99073.09;;;4.97;73.60
76128;BME280;64873;50.102;14.434;2023-04-02T07:59:25;99091.34;;;5.06;73.78
76128;BME280;64873;50.102;14.434;2023-04-02T08:01:51;99090.38;;;5.29;74.19
76128;BME280;64873;50.102;14.434;2023-04-02T08:04:19;99085.09;;;5.29;73.29
76128;BME280;64873;50.102;14.434;2023-04-02T08:06:46;99105.47;;;5.50;72.63
76128;BME280;64873;50.102;14.434;2023-04-02T08:09:12;99098.84;;;5.60;71.89
76128;BME280;64873;50.102;14.434;2023-04-02T08:11:38;99077.28;;;5.64;71.49
76128;BME280;64873;50.102;14.434;2023-04-02T08:14:09;99108.34;;;5.70;71.23
76128;BME280;64873;50.102;14.434;2023-04-02T08:16:51;99106.41;;;5.85;71.54
76128;BME280;64873;50.102;14.434;2023-04-02T08:19:17;99124.38;;;5.83;70.94
76128;BME280;64873;50.102;14.434;2023-04-02T08:21:43;99128.22;;;5.59;70.77
76128;BME280;64873;50.102;14.434;2023-04-02T08:24:09;99127.75;;;5.55;70.99
76128;BME280;64873;50.102;14.434;2023-04-02T08:26:34;99129.91;;;5.67;70.86
76128;BME280;64873;50.102;14.434;2023-04-02T08:29:00;99129.97;;;5.52;71.22
76128;BME280;64873;50.102;14.434;2023-04-02T08:31:26;99135.94;;;5.75;70.19
76128;BME280;64873;50.102;14.434;2023-04-02T08:33:51;99136.84;;;5.89;70.23
76128;BME280;64873;50.102;14.434;2023-04-02T08:36:18;99150.41;;;5.79;69.84
76128;BME280;64873;50.102;14.434;2023-04-02T08:38:48;99150.88;;;5.83;69.95
76128;BME280;64873;50.102;14.434;2023-04-02T08:41:21;99164.50;;;5.95;69.12
76128;BME280;64873;50.102;14.434;2023-04-02T08:48:46;99169.25;;;5.48;69.51
76128;BME280;64873;50.102;14.434;2023-04-02T08:51:26;99158.66;;;5.48;69.72
76128;BME280;64873;50.102;14.434;2023-04-02T08:54:37;99179.38;;;5.59;69.70
76128;BME280;64873;50.102;14.434;2023-04-02T08:56:50;99162.34;;;5.47;69.42
76128;BME280;64873;50.102;14.434;2023-04-02T08:59:29;99190.63;;;5.61;68.66
76128;BME280;64873;50.102;14.434;2023-04-02T09:02:08;99194.66;;;5.57;69.63
76128;BME280;64873;50.102;14.434;2023-04-02T09:04:36;99191.28;;;5.85;69.48
76128;BME280;64873;50.102;14.434;2023-04-02T09:07:03;99196.59;;;5.85;68.82
76128;BME280;64873;50.102;14.434;2023-04-02T09:09:33;99182.81;;;5.75;68.50
76128;BME280;64873;50.102;14.434;2023-04-02T09:12:01;99194.41;;;5.74;68.43
76128;BME280;64873;50.102;14.434;2023-04-02T09:17:29;99220.56;;;6.34;67.60
76128;BME280;64873;50.102;14.434;2023-04-02T09:20:16;99215.06;;;6.36;67.28
76128;BME280;64873;50.102;14.434;2023-04-02T09:22:47;99210.97;;;6.33;66.33
76128;BME280;64873;50.102;14.434;2023-04-02T09:25:19;99227.72;;;6.12;67.61
76128;BME280;64873;50.102;14.434;2023-04-02T09:27:49;99223.38;;;6.54;66.96
76128;BME280;64873;50.102;14.434;2023-04-02T09:33:03;99247.22;;;6.26;66.99
76128;BME280;64873;50.102;14.434;2023-04-02T09:35:34;99259.22;;;6.44;67.30
76128;BME280;64873;50.102;14.434;2023-04-02T09:40:34;99269.66;;;5.73;66.78
76128;BME280;64873;50.102;14.434;2023-04-02T09:43:12;99272.31;;;5.73;65.85
76128;BME280;64873;50.102;14.434;2023-04-02T09:45:40;99285.44;;;6.10;64.31
76128;BME280;64873;50.102;14.434;2023-04-02T09:48:30;99271.47;;;6.45;63.71
76128;BME280;64873;50.102;14.434;2023-04-02T09:51:27;99282.34;;;6.50;64.49
76128;BME280;64873;50.102;14.434;2023-04-02T09:56:30;99293.84;;;6.14;65.72
76128;BME280;64873;50.102;14.434;2023-04-02T10:01:44;99311.00;;;5.82;65.20
76128;BME280;64873;50.102;14.434;2023-04-02T10:04:46;99314.41;;;5.46;67.07
76128;BME280;64873;50.102;14.434;2023-04-02T10:07:30;99326.63;;;5.47;65.47
76128;BME280;64873;50.102;14.434;2023-04-02T10:10:03;99320.44;;;5.70;64.90
76128;BME280;64873;50.102;14.434;2023-04-02T10:12:34;99331.03;;;5.70;64.72
76128;BME280;64873;50.102;14.434;2023-04-02T10:15:05;99344.81;;;5.65;64.51
76128;BME280;64873;50.102;14.434;2023-04-02T10:17:34;99313.47;;;5.98;63.50
76128;BME280;64873;50.102;14.434;2023-04-02T10:20:22;99344.09;;;6.37;63.28
76128;BME280;64873;50.102;14.434;2023-04-02T10:22:49;99337.41;;;6.41;62.88
76128;BME280;64873;50.102;14.434;2023-04-02T10:25:16;99340.78;;;6.13;63.14
76128;BME280;64873;50.102;14.434;2023-04-02T10:33:04;99359.81;;;5.58;66.34
76128;BME280;64873;50.102;14.434;2023-04-02T10:35:39;99368.13;;;5.40;66.05
76128;BME280;64873;50.102;14.434;2023-04-02T10:46:12;99381.72;;;5.22;66.36
76128;BME280;64873;50.102;14.434;2023-04-02T10:51:42;99396.69;;;5.30;66.09
76128;BME280;64873;50.102;14.434;2023-04-02T10:54:42;99395.63;;;5.01;66.96
76128;BME280;64873;50.102;14.434;2023-04-02T10:59:53;99400.38;;;5.44;66.21
76128;BME280;64873;50.102;14.434;2023-04-02T11:02:31;99389.03;;;5.35;65.73
76128;BME280;64873;50.102;14.434;2023-04-02T11:05:04;99425.56;;;5.25;66.06
76128;BME280;64873;50.102;14.434;2023-04-02T11:07:41;99414.38;;;5.15;66.12
76128;BME280;64873;50.102;14.434;2023-04-02T11:10:14;99415.81;;;5.40;66.37
76128;BME280;64873;50.102;14.434;2023-04-02T11:12:53;99420.97;;;5.19;67.12
76128;BME280;64873;50.102;14.434;2023-04-02T11:15:20;99412.94;;;4.89;67.90
76128;BME280;64873;50.102;14.434;2023-04-02T11:17:46;99424.03;;;5.45;66.91
76128;BME280;64873;50.102;14.434;2023-04-02T11:20:53;99440.03;;;5.37;66.81
76128;BME280;64873;50.102;14.434;2023-04-02T11:23:20;99438.59;;;5.12;68.03
76128;BME280;64873;50.102;14.434;2023-04-02T11:25:46;99439.34;;;4.97;68.83
76128;BME280;64873;50.102;14.434;2023-04-02T11:28:30;99456.13;;;5.13;66.96
76128;BME280;64873;50.102;14.434;2023-04-02T11:30:57;99443.84;;;4.66;67.66
76128;BME280;64873;50.102;14.434;2023-04-02T11:36:00;99459.59;;;4.90;66.83
76128;BME280;64873;50.102;14.434;2023-04-02T11:40:53;99454.81;;;4.86;67.44
76128;BME280;64873;50.102;14.434;2023-04-02T11:46:05;99473.84;;;5.12;66.04
76128;BME280;64873;50.102;14.434;2023-04-02T11:48:50;99488.94;;;5.03;66.07
76128;BME280;64873;50.102;14.434;2023-04-02T11:53:48;99484.06;;;5.15;65.75
76128;BME280;64873;50.102;14.434;2023-04-02T11:56:46;99492.28;;;4.97;66.49
76128;BME280;64873;50.102;14.434;2023-04-02T11:59:39;99491.06;;;4.85;67.11
76128;BME280;64873;50.102;14.434;2023-04-02T12:02:27;99498.25;;;4.99;67.14
76128;BME280;64873;50.102;14.434;2023-04-02T12:05:08;99490.81;;;4.72;67.38
76128;BME280;64873;50.102;14.434;2023-04-02T12:10:57;99506.88;;;5.24;66.95
76128;BME280;64873;50.102;14.434;2023-04-02T12:16:06;99520.81;;;5.18;67.20
76128;BME280;64873;50.102;14.434;2023-04-02T12:18:33;99501.56;;;5.01;67.14
76128;BME280;64873;50.102;14.434;2023-04-02T12:20:59;99512.63;;;5.05;67.53
76128;BME280;64873;50.102;14.434;2023-04-02T12:23:30;99527.91;;;4.95;67.67
76128;BME280;64873;50.102;14.434;2023-04-02T12:26:02;99533.94;;;5.12;67.03
76128;BME280;64873;50.102;14.434;2023-04-02T12:28:28;99547.50;;;5.17;67.05
76128;BME280;64873;50.102;14.434;2023-04-02T12:31:04;99527.22;;;5.01;66.90
76128;BME280;64873;50.102;14.434;2023-04-02T12:33:37;99543.84;;;5.18;67.23
76128;BME280;64873;50.102;14.434;2023-04-02T12:36:20;99546.69;;;5.08;66.67
76128;BME280;64873;50.102;14.434;2023-04-02T12:38:52;99544.31;;;4.90;67.53
76128;BME280;64873;50.102;14.434;2023-04-02T12:44:05;99552.56;;;4.95;67.55
76128;BME280;64873;50.102;14.434;2023-04-02T12:46:33;99568.06;;;4.67;67.82
76128;BME280;64873;50.102;14.434;2023-04-02T12:49:29;99576.53;;;4.63;68.61
76128;BME280;64873;50.102;14.434;2023-04-02T12:51:55;99572.28;;;4.53;68.46
76128;BME280;64873;50.102;14.434;2023-04-02T12:54:22;99568.44;;;4.56;68.22
76128;BME280;64873;50.102;14.434;2023-04-02T12:56:48;99565.66;;;4.49;68.37
76128;BME280;64873;50.102;14.434;2023-04-02T12:59:28;99557.59;;;4.82;66.66
76128;BME280;64873;50.102;14.434;2023-04-02T13:01:56;99578.28;;;4.87;67.34
76128;BME280;64873;50.102;14.434;2023-04-02T13:04:22;99572.72;;;4.65;67.63
76128;BME280;64873;50.102;14.434;2023-04-02T13:06:50;99576.69;;;4.61;68.03
76128;BME280;64873;50.102;14.434;2023-04-02T13:09:42;99557.06;;;4.47;68.26
76128;BME280;64873;50.102;14.434;2023-04-02T13:12:27;99585.19;;;4.48;69.49
76128;BME280;64873;50.102;14.434;2023-04-02T13:14:57;99582.16;;;4.60;68.98
76128;BME280;64873;50.102;14.434;2023-04-02T13:20:30;99598.66;;;4.78;67.59
76128;BME280;64873;50.102;14.434;2023-04-02T13:22:57;99602.66;;;4.66;67.62
76128;BME280;64873;50.102;14.434;2023-04-02T13:25:35;99604.72;;;4.47;68.41
76128;BME280;64873;50.102;14.434;2023-04-02T13:28:01;99610.69;;;4.25;69.02
76128;BME280;64873;50.102;14.434;2023-04-02T13:30:27;99620.97;;;4.28;68.81
76128;BME280;64873;50.102;14.434;2023-04-02T13:32:53;99605.38;;;4.41;68.33
76128;BME280;64873;50.102;14.434;2023-04-02T13:35:19;99616.22;;;4.63;67.34
76128;BME280;64873;50.102;14.434;2023-04-02T13:37:45;99614.09;;;4.58;66.96
76128;BME280;64873;50.102;14.434;2023-04-02T13:40:15;99629.34;;;4.48;66.44
76128;BME280;64873;50.102;14.434;2023-04-02T13:42:42;99613.66;;;4.46;66.63
76128;BME280;64873;50.102;14.434;2023-04-02T13:45:37;99634.09;;;4.61;66.91
76128;BME280;64873;50.102;14.434;2023-04-02T13:48:04;99645.22;;;4.48;66.83
76128;BME280;64873;50.102;14.434;2023-04-02T13:50:32;99638.06;;;4.65;66.53
76128;BME280;64873;50.102;14.434;2023-04-02T13:53:04;99621.41;;;4.48;65.68
76128;BME280;64873;50.102;14.434;2023-04-02T13:55:30;99645.34;;;4.71;65.70
76128;BME280;64873;50.102;14.434;2023-04-02T13:57:59;99651.31;;;4.57;65.89
76128;BME280;64873;50.102;14.434;2023-04-02T14:00:24;99646.69;;;4.50;65.78
76128;BME280;64873;50.102;14.434;2023-04-02T14:02:57;99650.63;;;4.71;66.14
76128;BME280;64873;50.102;14.434;2023-04-02T14:06:33;99654.94;;;4.55;66.10
76128;BME280;64873;50.102;14.434;2023-04-02T14:08:59;99660.59;;;4.52;66.60
76128;BME280;64873;50.102;14.434;2023-04-02T14:11:49;99668.72;;;4.35;67.22
76128;BME280;64873;50.102;14.434;2023-04-02T14:17:47;99650.63;;;4.63;66.44
76128;BME280;64873;50.102;14.434;2023-04-02T14:34:18;99697.66;;;4.36;66.99
76128;BME280;64873;50.102;14.434;2023-04-02T14:44:54;99704.13;;;4.17;68.68
76128;BME280;64873;50.102;14.434;2023-04-02T14:47:30;99678.16;;;4.05;68.78
76128;BME280;64873;50.102;14.434;2023-04-02T14:50:11;99706.75;;;4.25;68.49
76128;BME280;64873;50.102;14.434;2023-04-02T14:52:41;99698.00;;;4.17;67.70
76128;BME280;64873;50.102;14.434;2023-04-02T14:55:29;99707.22;;;4.21;67.51
76128;BME280;64873;50.102;14.434;2023-04-02T14:58:00;99709.88;;;4.21;67.19
76128;BME280;64873;50.102;14.434;2023-04-02T15:00:35;99720.47;;;4.21;67.27
76128;BME280;64873;50.102;14.434;2023-04-02T15:03:06;99715.19;;;4.29;67.08
76128;BME280;64873;50.102;14.434;2023-04-02T15:08:17;99727.06;;;4.49;66.38
76128;BME280;64873;50.102;14.434;2023-04-02T15:16:23;99725.59;;;4.47;66.40
76128;BME280;64873;50.102;14.434;2023-04-02T15:18:58;99736.34;;;4.53;66.27
76128;BME280;64873;50.102;14.434;2023-04-02T15:31:53;99752.88;;;4.31;68.02
76128;BME280;64873;50.102;14.434;2023-04-02T15:34:26;99764.47;;;4.30;67.66
76128;BME280;64873;50.102;14.434;2023-04-02T15:37:18;99764.94;;;4.25;66.82
76128;BME280;64873;50.102;14.434;2023-04-02T15:42:32;99771.03;;;4.01;66.32
76128;BME280;64873;50.102;14.434;2023-04-02T15:48:00;99778.66;;;4.21;65.60
76128;BME280;64873;50.102;14.434;2023-04-02T15:53:38;99778.66;;;4.21;64.69
76128;BME280;64873;50.102;14.434;2023-04-02T15:56:21;99785.06;;;4.10;64.78
76128;BME280;64873;50.102;14.434;2023-04-02T16:12:45;99804.13;;;4.30;64.48
76128;BME280;64873;50.102;14.434;2023-04-02T16:15:16;99793.22;;;4.33;64.75
76128;BME280;64873;50.102;14.434;2023-04-02T16:17:47;99813.38;;;4.26;64.98
76128;BME280;64873;50.102;14.434;2023-04-02T16:20:21;99798.50;;;4.17;64.91
76128;BME280;64873;50.102;14.434;2023-04-02T16:25:38;99815.06;;;4.35;64.36
76128;BME280;64873;50.102;14.434;2023-04-02T16:28:24;99809.47;;;4.46;63.97
76128;BME280;64873;50.102;14.434;2023-04-02T16:30:57;99819.00;;;4.39;63.81
76128;BME280;64873;50.102;14.434;2023-04-02T16:36:29;99825.16;;;4.40;63.96
76128;BME280;64873;50.102;14.434;2023-04-02T16:44:39;99821.53;;;4.41;64.27
76128;BME280;64873;50.102;14.434;2023-04-02T16:58:49;99840.19;;;4.39;64.56
76128;BME280;64873;50.102;14.434;2023-04-02T17:01:27;99850.75;;;4.39;64.22
76128;BME280;64873;50.102;14.434;2023-04-02T17:09:25;99867.66;;;4.46;64.57
76128;BME280;64873;50.102;14.434;2023-04-02T17:17:09;99878.22;;;4.38;64.71
76128;BME280;64873;50.102;14.434;2023-04-02T17:19:37;99856.06;;;4.31;64.60